sensor_id;sensor_type;location;lat;lon;timestamp;temperature;humidity
60495;DHT22;46342;49.046;11.920;2022-10-30T00:00:12;16.20;70.00
60495;DHT22;46342;49.046;11.920;2022-10-30T00:02:38;16.30;70.10
60495;DHT22;46342;49.046;11.920;2022-10-30T00:05:04;16.20;70.00
60495;DHT22;46342;49.046;11.920;2022-10-30T00:07:30;16.20;69.90
60495;DHT22;46342;49.046;11.920;2022-10-30T00:09:55;16.20;69.90
60495;DHT22;46342;49.046;11.920;2022-10-30T00:12:21;16.20;70.00
60495;DHT22;46342;49.046;11.920;2022-10-30T00:14:46;16.20;70.00
60495;DHT22;46342;49.046;11.920;2022-10-30T00:17:12;16.10;69.90
60495;DHT22;46342;49.046;11.920;2022-10-30T00:19:37;16.10;69.90
60495;DHT22;46342;49.046;11.920;2022-10-30T00:22:03;16.10;70.00
60495;DHT22;46342;49.046;11.920;2022-10-30T00:24:29;16.10;70.00
60495;DHT22;46342;49.046;11.920;2022-10-30T00:26:55;16.00;69.80
60495;DHT22;46342;49.046;11.920;2022-10-30T00:29:20;16.00;70.80
60495;DHT22;46342;49.046;11.920;2022-10-30T00:31:49;16.00;69.90
60495;DHT22;46342;49.046;11.920;2022-10-30T00:34:15;16.00;70.00
60495;DHT22;46342;49.046;11.920;2022-10-30T00:36:40;15.90;70.10
60495;DHT22;46342;49.046;11.920;2022-10-30T00:39:06;15.90;70.10
60495;DHT22;46342;49.046;11.920;2022-10-30T00:41:32;15.90;70.30
60495;DHT22;46342;49.046;11.920;2022-10-30T00:43:57;15.90;70.40
60495;DHT22;46342;49.046;11.920;2022-10-30T00:46:30;15.90;70.50
60495;DHT22;46342;49.046;11.920;2022-10-30T00:49:02;15.90;70.90
60495;DHT22;46342;49.046;11.920;2022-10-30T00:51:29;15.90;70.70
60495;DHT22;46342;49.046;11.920;2022-10-30T00:53:59;15.90;70.80
60495;DHT22;46342;49.046;11.920;2022-10-30T00:56:26;15.90;70.90
60495;DHT22;46342;49.046;11.920;2022-10-30T00:58:56;15.90;70.80
60495;DHT22;46342;49.046;11.920;2022-10-30T01:01:25;15.90;71.10
60495;DHT22;46342;49.046;11.920;2022-10-30T01:03:55;15.80;71.00
60495;DHT22;46342;49.046;11.920;2022-10-30T01:06:22;15.90;71.30
60495;DHT22;46342;49.046;11.920;2022-10-30T01:08:49;15.80;71.00
60495;DHT22;46342;49.046;11.920;2022-10-30T01:11:15;15.80;71.00
60495;DHT22;46342;49.046;11.920;2022-10-30T01:13:42;15.90;71.10
60495;DHT22;46342;49.046;11.920;2022-10-30T01:16:23;15.80;71.00
60495;DHT22;46342;49.046;11.920;2022-10-30T01:19:17;15.90;71.30
60495;DHT22;46342;49.046;11.920;2022-10-30T01:22:03;15.90;71.30
60495;DHT22;46342;49.046;11.920;2022-10-30T01:27:21;15.80;71.00
60495;DHT22;46342;49.046;11.920;2022-10-30T01:30:02;15.80;71.00
60495;DHT22;46342;49.046;11.920;2022-10-30T01:33:09;15.80;70.70
60495;DHT22;46342;49.046;11.920;2022-10-30T01:38:20;15.80;71.10
60495;DHT22;46342;49.046;11.920;2022-10-30T01:40:48;15.70;71.00
60495;DHT22;46342;49.046;11.920;2022-10-30T01:43:14;15.70;70.80
60495;DHT22;46342;49.046;11.920;2022-10-30T01:49:06;15.70;71.40
60495;DHT22;46342;49.046;11.920;2022-10-30T01:54:37;15.70;71.30
60495;DHT22;46342;49.046;11.920;2022-10-30T01:57:47;15.70;71.10
60495;DHT22;46342;49.046;11.920;2022-10-30T02:00:13;15.60;70.80
60495;DHT22;46342;49.046;11.920;2022-10-30T02:02:39;15.70;71.40
60495;DHT22;46342;49.046;11.920;2022-10-30T02:05:06;15.60;70.90
60495;DHT22;46342;49.046;11.920;2022-10-30T02:07:34;15.60;70.90
60495;DHT22;46342;49.046;11.920;2022-10-30T02:10:00;15.60;70.90
60495;DHT22;46342;49.046;11.920;2022-10-30T02:12:25;15.60;70.90
60495;DHT22;46342;49.046;11.920;2022-10-30T02:14:57;15.60;71.00
60495;DHT22;46342;49.046;11.920;2022-10-30T02:17:24;15.60;71.30
60495;DHT22;46342;49.046;11.920;2022-10-30T02:19:50;15.60;71.00
60495;DHT22;46342;49.046;11.920;2022-10-30T02:22:16;15.60;71.10
60495;DHT22;46342;49.046;11.920;2022-10-30T02:24:43;15.60;71.10
60495;DHT22;46342;49.046;11.920;2022-10-30T02:27:09;15.60;71.10
60495;DHT22;46342;49.046;11.920;2022-10-30T02:29:34;15.60;71.10
60495;DHT22;46342;49.046;11.920;2022-10-30T02:32:00;15.50;70.90
60495;DHT22;46342;49.046;11.920;2022-10-30T02:34:26;15.50;70.90
60495;DHT22;46342;49.046;11.920;2022-10-30T02:36:51;15.50;70.80
60495;DHT22;46342;49.046;11.920;2022-10-30T02:39:17;15.50;70.80
60495;DHT22;46342;49.046;11.920;2022-10-30T02:41:44;15.50;70.70
60495;DHT22;46342;49.046;11.920;2022-10-30T02:44:10;15.50;70.70
60495;DHT22;46342;49.046;11.920;2022-10-30T02:46:35;15.50;70.70
60495;DHT22;46342;49.046;11.920;2022-10-30T02:49:01;15.40;70.70
60495;DHT22;46342;49.046;11.920;2022-10-30T02:51:27;15.40;70.70
60495;DHT22;46342;49.046;11.920;2022-10-30T02:53:52;15.40;70.70
60495;DHT22;46342;49.046;11.920;2022-10-30T02:56:18;15.40;70.70
60495;DHT22;46342;49.046;11.920;2022-10-30T02:58:43;15.40;70.80
60495;DHT22;46342;49.046;11.920;2022-10-30T03:01:14;15.30;70.60
60495;DHT22;46342;49.046;11.920;2022-10-30T03:03:41;15.40;70.90
60495;DHT22;46342;49.046;11.920;2022-10-30T03:06:09;15.40;70.80
60495;DHT22;46342;49.046;11.920;2022-10-30T03:08:35;15.30;70.80
60495;DHT22;46342;49.046;11.920;2022-10-30T03:11:10;15.30;70.80
60495;DHT22;46342;49.046;11.920;2022-10-30T03:13:36;15.40;71.00
60495;DHT22;46342;49.046;11.920;2022-10-30T03:16:05;15.30;70.70
60495;DHT22;46342;49.046;11.920;2022-10-30T03:18:32;15.30;70.80
60495;DHT22;46342;49.046;11.920;2022-10-30T03:20:59;15.30;70.80
60495;DHT22;46342;49.046;11.920;2022-10-30T03:23:25;15.20;70.60
60495;DHT22;46342;49.046;11.920;2022-10-30T03:25:55;15.20;70.50
60495;DHT22;46342;49.046;11.920;2022-10-30T03:28:24;15.20;70.60
60495;DHT22;46342;49.046;11.920;2022-10-30T03:30:50;15.20;70.50
60495;DHT22;46342;49.046;11.920;2022-10-30T03:33:16;15.10;70.50
60495;DHT22;46342;49.046;11.920;2022-10-30T03:35:45;15.20;70.60
60495;DHT22;46342;49.046;11.920;2022-10-30T03:38:12;15.20;70.90
60495;DHT22;46342;49.046;11.920;2022-10-30T03:40:38;15.10;70.70
60495;DHT22;46342;49.046;11.920;2022-10-30T03:43:04;15.10;70.80
60495;DHT22;46342;49.046;11.920;2022-10-30T03:45:32;15.10;70.90
60495;DHT22;46342;49.046;11.920;2022-10-30T03:48:02;15.10;70.90
60495;DHT22;46342;49.046;11.920;2022-10-30T03:50:28;15.10;71.10
60495;DHT22;46342;49.046;11.920;2022-10-30T03:52:54;15.00;70.80
60495;DHT22;46342;49.046;11.920;2022-10-30T03:55:21;15.00;70.90
60495;DHT22;46342;49.046;11.920;2022-10-30T03:57:46;15.00;70.90
60495;DHT22;46342;49.046;11.920;2022-10-30T04:00:13;15.00;70.90
60495;DHT22;46342;49.046;11.920;2022-10-30T04:02:43;15.00;70.90
60495;DHT22;46342;49.046;11.920;2022-10-30T04:05:08;14.90;70.70
60495;DHT22;46342;49.046;11.920;2022-10-30T04:07:34;15.00;70.80
60495;DHT22;46342;49.046;11.920;2022-10-30T04:09:59;15.00;70.80
60495;DHT22;46342;49.046;11.920;2022-10-30T04:12:25;15.00;71.00
60495;DHT22;46342;49.046;11.920;2022-10-30T04:14:50;14.90;71.00
60495;DHT22;46342;49.046;11.920;2022-10-30T04:17:18;14.90;71.20
60495;DHT22;46342;49.046;11.920;2022-10-30T04:19:43;14.90;71.20
60495;DHT22;46342;49.046;11.920;2022-10-30T04:22:09;14.90;71.40
60495;DHT22;46342;49.046;11.920;2022-10-30T04:24:34;14.80;71.30
60495;DHT22;46342;49.046;11.920;2022-10-30T04:27:00;14.90;71.40
60495;DHT22;46342;49.046;11.920;2022-10-30T04:29:25;14.90;71.40
60495;DHT22;46342;49.046;11.920;2022-10-30T04:31:51;14.80;71.30
60495;DHT22;46342;49.046;11.920;2022-10-30T04:34:16;14.90;71.30
60495;DHT22;46342;49.046;11.920;2022-10-30T04:36:42;14.90;71.30
60495;DHT22;46342;49.046;11.920;2022-10-30T04:39:08;14.90;71.20
60495;DHT22;46342;49.046;11.920;2022-10-30T04:41:34;14.80;71.10
60495;DHT22;46342;49.046;11.920;2022-10-30T04:43:59;14.80;71.00
60495;DHT22;46342;49.046;11.920;2022-10-30T04:46:25;14.80;70.90
60495;DHT22;46342;49.046;11.920;2022-10-30T04:48:51;14.80;70.90
60495;DHT22;46342;49.046;11.920;2022-10-30T04:51:17;14.80;70.90
60495;DHT22;46342;49.046;11.920;2022-10-30T04:53:43;14.70;70.70
60495;DHT22;46342;49.046;11.920;2022-10-30T04:56:08;14.70;70.70
60495;DHT22;46342;49.046;11.920;2022-10-30T04:58:34;14.70;70.70
60495;DHT22;46342;49.046;11.920;2022-10-30T05:01:04;14.70;70.70
60495;DHT22;46342;49.046;11.920;2022-10-30T05:03:29;14.70;71.00
60495;DHT22;46342;49.046;11.920;2022-10-30T05:05:58;14.60;70.70
60495;DHT22;46342;49.046;11.920;2022-10-30T05:08:25;14.60;70.80
60495;DHT22;46342;49.046;11.920;2022-10-30T05:10:52;14.50;70.50
60495;DHT22;46342;49.046;11.920;2022-10-30T05:13:17;14.60;70.60
60495;DHT22;46342;49.046;11.920;2022-10-30T05:15:43;14.60;70.60
60495;DHT22;46342;49.046;11.920;2022-10-30T05:18:08;14.60;70.50
60495;DHT22;46342;49.046;11.920;2022-10-30T05:20:34;14.50;70.40
60495;DHT22;46342;49.046;11.920;2022-10-30T05:23:00;14.50;70.40
60495;DHT22;46342;49.046;11.920;2022-10-30T05:25:27;14.50;70.40
60495;DHT22;46342;49.046;11.920;2022-10-30T05:28:04;14.40;70.50
60495;DHT22;46342;49.046;11.920;2022-10-30T05:30:31;14.40;70.70
60495;DHT22;46342;49.046;11.920;2022-10-30T05:33:01;14.40;70.40
60495;DHT22;46342;49.046;11.920;2022-10-30T05:35:28;14.40;70.50
60495;DHT22;46342;49.046;11.920;2022-10-30T05:37:54;14.40;70.50
60495;DHT22;46342;49.046;11.920;2022-10-30T05:40:19;14.30;70.50
60495;DHT22;46342;49.046;11.920;2022-10-30T05:42:48;14.30;70.50
60495;DHT22;46342;49.046;11.920;2022-10-30T05:45:14;14.30;70.70
60495;DHT22;46342;49.046;11.920;2022-10-30T05:47:40;14.30;70.60
60495;DHT22;46342;49.046;11.920;2022-10-30T05:50:07;14.30;70.60
60495;DHT22;46342;49.046;11.920;2022-10-30T05:52:32;14.30;70.70
60495;DHT22;46342;49.046;11.920;2022-10-30T05:54:58;14.20;70.60
60495;DHT22;46342;49.046;11.920;2022-10-30T05:57:26;14.20;70.60
60495;DHT22;46342;49.046;11.920;2022-10-30T05:59:51;14.20;70.70
60495;DHT22;46342;49.046;11.920;2022-10-30T06:02:17;14.20;70.80
60495;DHT22;46342;49.046;11.920;2022-10-30T06:04:42;14.10;70.60
60495;DHT22;46342;49.046;11.920;2022-10-30T06:07:09;14.10;70.70
60495;DHT22;46342;49.046;11.920;2022-10-30T06:09:35;14.10;70.80
60495;DHT22;46342;49.046;11.920;2022-10-30T06:12:00;14.10;70.80
60495;DHT22;46342;49.046;11.920;2022-10-30T06:14:26;14.10;70.90
60495;DHT22;46342;49.046;11.920;2022-10-30T06:16:51;14.10;71.00
60495;DHT22;46342;49.046;11.920;2022-10-30T06:19:17;14.10;71.10
60495;DHT22;46342;49.046;11.920;2022-10-30T06:21:43;14.10;71.20
60495;DHT22;46342;49.046;11.920;2022-10-30T06:24:08;14.10;71.30
60495;DHT22;46342;49.046;11.920;2022-10-30T06:26:34;14.10;71.40
60495;DHT22;46342;49.046;11.920;2022-10-30T06:28:59;14.10;71.50
60495;DHT22;46342;49.046;11.920;2022-10-30T06:31:25;14.10;71.60
60495;DHT22;46342;49.046;11.920;2022-10-30T06:33:51;14.10;71.50
60495;DHT22;46342;49.046;11.920;2022-10-30T06:36:16;14.10;71.50
60495;DHT22;46342;49.046;11.920;2022-10-30T06:38:42;14.10;71.40
60495;DHT22;46342;49.046;11.920;2022-10-30T06:41:08;14.10;71.30
60495;DHT22;46342;49.046;11.920;2022-10-30T06:43:34;14.10;71.20
60495;DHT22;46342;49.046;11.920;2022-10-30T06:46:00;14.10;71.10
60495;DHT22;46342;49.046;11.920;2022-10-30T06:48:26;14.10;71.00
60495;DHT22;46342;49.046;11.920;2022-10-30T06:50:55;14.10;71.10
60495;DHT22;46342;49.046;11.920;2022-10-30T06:53:21;14.10;71.20
60495;DHT22;46342;49.046;11.920;2022-10-30T06:55:57;14.00;71.00
60495;DHT22;46342;49.046;11.920;2022-10-30T06:58:23;14.10;71.50
60495;DHT22;46342;49.046;11.920;2022-10-30T07:00:49;14.00;71.20
60495;DHT22;46342;49.046;11.920;2022-10-30T07:03:15;14.00;71.40
60495;DHT22;46342;49.046;11.920;2022-10-30T07:05:41;14.00;71.60
60495;DHT22;46342;49.046;11.920;2022-10-30T07:08:06;14.10;71.80
60495;DHT22;46342;49.046;11.920;2022-10-30T07:10:32;14.00;72.00
60495;DHT22;46342;49.046;11.920;2022-10-30T07:12:58;14.10;72.30
60495;DHT22;46342;49.046;11.920;2022-10-30T07:15:24;14.10;72.50
60495;DHT22;46342;49.046;11.920;2022-10-30T07:17:54;14.10;72.60
60495;DHT22;46342;49.046;11.920;2022-10-30T07:20:20;14.20;72.80
60495;DHT22;46342;49.046;11.920;2022-10-30T07:22:46;14.20;72.50
60495;DHT22;46342;49.046;11.920;2022-10-30T07:25:12;14.20;72.30
60495;DHT22;46342;49.046;11.920;2022-10-30T07:27:45;14.20;72.20
60495;DHT22;46342;49.046;11.920;2022-10-30T07:30:12;14.20;72.30
60495;DHT22;46342;49.046;11.920;2022-10-30T07:32:39;14.20;72.10
60495;DHT22;46342;49.046;11.920;2022-10-30T07:35:05;14.20;71.90
60495;DHT22;46342;49.046;11.920;2022-10-30T07:37:31;14.20;72.00
60495;DHT22;46342;49.046;11.920;2022-10-30T07:39:56;14.20;72.00
60495;DHT22;46342;49.046;11.920;2022-10-30T07:42:22;14.20;72.10
60495;DHT22;46342;49.046;11.920;2022-10-30T07:44:47;14.30;72.30
60495;DHT22;46342;49.046;11.920;2022-10-30T07:47:13;14.30;72.40
60495;DHT22;46342;49.046;11.920;2022-10-30T07:49:39;14.30;72.60
60495;DHT22;46342;49.046;11.920;2022-10-30T07:52:05;14.30;72.70
60495;DHT22;46342;49.046;11.920;2022-10-30T07:54:30;14.30;72.90
60495;DHT22;46342;49.046;11.920;2022-10-30T07:56:56;14.40;73.20
60495;DHT22;46342;49.046;11.920;2022-10-30T07:59:23;14.40;73.30
60495;DHT22;46342;49.046;11.920;2022-10-30T08:01:49;14.40;73.50
60495;DHT22;46342;49.046;11.920;2022-10-30T08:04:15;14.50;73.70
60495;DHT22;46342;49.046;11.920;2022-10-30T08:06:40;14.50;73.90
60495;DHT22;46342;49.046;11.920;2022-10-30T08:09:06;14.60;74.30
60495;DHT22;46342;49.046;11.920;2022-10-30T08:11:32;14.70;74.70
60495;DHT22;46342;49.046;11.920;2022-10-30T08:13:57;14.70;75.00
60495;DHT22;46342;49.046;11.920;2022-10-30T08:16:23;14.80;75.30
60495;DHT22;46342;49.046;11.920;2022-10-30T08:18:50;14.90;75.60
60495;DHT22;46342;49.046;11.920;2022-10-30T08:21:15;15.00;75.70
60495;DHT22;46342;49.046;11.920;2022-10-30T08:23:41;15.00;75.60
60495;DHT22;46342;49.046;11.920;2022-10-30T08:26:06;15.10;75.80
60495;DHT22;46342;49.046;11.920;2022-10-30T08:28:32;15.20;75.90
60495;DHT22;46342;49.046;11.920;2022-10-30T08:30:58;15.30;76.00
60495;DHT22;46342;49.046;11.920;2022-10-30T08:33:24;15.40;76.20
60495;DHT22;46342;49.046;11.920;2022-10-30T08:35:51;15.40;76.20
60495;DHT22;46342;49.046;11.920;2022-10-30T08:38:17;15.50;76.40
60495;DHT22;46342;49.046;11.920;2022-10-30T08:40:43;15.60;76.50
60495;DHT22;46342;49.046;11.920;2022-10-30T08:43:09;15.70;76.50
60495;DHT22;46342;49.046;11.920;2022-10-30T08:45:35;15.80;76.60
60495;DHT22;46342;49.046;11.920;2022-10-30T08:48:02;15.90;76.70
60495;DHT22;46342;49.046;11.920;2022-10-30T08:50:29;16.00;76.80
60495;DHT22;46342;49.046;11.920;2022-10-30T08:52:55;16.00;76.60
60495;DHT22;46342;49.046;11.920;2022-10-30T08:55:21;16.10;76.60
60495;DHT22;46342;49.046;11.920;2022-10-30T08:57:46;16.20;76.50
60495;DHT22;46342;49.046;11.920;2022-10-30T09:00:12;16.30;76.50
60495;DHT22;46342;49.046;11.920;2022-10-30T09:02:38;16.30;76.30
60495;DHT22;46342;49.046;11.920;2022-10-30T09:05:05;16.40;76.30
60495;DHT22;46342;49.046;11.920;2022-10-30T09:07:31;16.50;76.40
60495;DHT22;46342;49.046;11.920;2022-10-30T09:09:56;16.60;76.30
60495;DHT22;46342;49.046;11.920;2022-10-30T09:12:22;16.60;76.20
60495;DHT22;46342;49.046;11.920;2022-10-30T09:14:48;16.70;76.10
60495;DHT22;46342;49.046;11.920;2022-10-30T09:17:13;16.80;76.00
60495;DHT22;46342;49.046;11.920;2022-10-30T09:19:39;16.80;76.00
60495;DHT22;46342;49.046;11.920;2022-10-30T09:22:04;16.90;75.90
60495;DHT22;46342;49.046;11.920;2022-10-30T09:24:30;16.90;75.80
60495;DHT22;46342;49.046;11.920;2022-10-30T09:26:56;17.00;75.70
60495;DHT22;46342;49.046;11.920;2022-10-30T09:29:21;17.10;75.80
60495;DHT22;46342;49.046;11.920;2022-10-30T09:31:47;17.10;75.70
60495;DHT22;46342;49.046;11.920;2022-10-30T09:34:13;17.20;75.80
60495;DHT22;46342;49.046;11.920;2022-10-30T09:36:38;17.20;75.60
60495;DHT22;46342;49.046;11.920;2022-10-30T09:39:04;17.30;75.70
60495;DHT22;46342;49.046;11.920;2022-10-30T09:52:56;17.60;75.50
60495;DHT22;46342;49.046;11.920;2022-10-30T09:55:32;17.70;75.60
60495;DHT22;46342;49.046;11.920;2022-10-30T10:00:55;17.80;75.00
60495;DHT22;46342;49.046;11.920;2022-10-30T10:03:30;17.90;75.50
60495;DHT22;46342;49.046;11.920;2022-10-30T10:05:59;18.00;75.60
60495;DHT22;46342;49.046;11.920;2022-10-30T10:08:38;18.10;75.40
60495;DHT22;46342;49.046;11.920;2022-10-30T10:11:13;18.10;75.30
60495;DHT22;46342;49.046;11.920;2022-10-30T10:16:39;18.30;75.00
60495;DHT22;46342;49.046;11.920;2022-10-30T10:24:38;18.60;75.30
60495;DHT22;46342;49.046;11.920;2022-10-30T10:29:53;18.80;75.60
60495;DHT22;46342;49.046;11.920;2022-10-30T10:43:43;19.30;73.90
60495;DHT22;46342;49.046;11.920;2022-10-30T10:51:48;19.60;74.30
60495;DHT22;46342;49.046;11.920;2022-10-30T10:54:20;19.70;73.90
60495;DHT22;46342;49.046;11.920;2022-10-30T10:56:49;19.80;74.00
60495;DHT22;46342;49.046;11.920;2022-10-30T10:59:22;19.80;74.20
60495;DHT22;46342;49.046;11.920;2022-10-30T11:02:22;20.00;73.70
60495;DHT22;46342;49.046;11.920;2022-10-30T11:04:40;20.00;73.70
60495;DHT22;46342;49.046;11.920;2022-10-30T11:07:22;20.10;74.00
60495;DHT22;46342;49.046;11.920;2022-10-30T11:09:55;20.20;73.20
60495;DHT22;46342;49.046;11.920;2022-10-30T11:12:29;20.30;72.80
60495;DHT22;46342;49.046;11.920;2022-10-30T11:14:57;20.40;73.00
60495;DHT22;46342;49.046;11.920;2022-10-30T11:17:44;20.50;73.40
60495;DHT22;46342;49.046;11.920;2022-10-30T11:20:18;20.60;71.90
60495;DHT22;46342;49.046;11.920;2022-10-30T11:22:49;20.70;72.40
60495;DHT22;46342;49.046;11.920;2022-10-30T11:25:23;20.70;72.20
60495;DHT22;46342;49.046;11.920;2022-10-30T11:27:54;20.80;71.50
60495;DHT22;46342;49.046;11.920;2022-10-30T11:30:23;20.90;71.80
60495;DHT22;46342;49.046;11.920;2022-10-30T11:32:49;21.00;72.30
60495;DHT22;46342;49.046;11.920;2022-10-30T11:35:17;21.00;72.50
60495;DHT22;46342;49.046;11.920;2022-10-30T11:37:45;21.10;72.50
60495;DHT22;46342;49.046;11.920;2022-10-30T11:43:00;21.30;72.30
60495;DHT22;46342;49.046;11.920;2022-10-30T11:45:33;21.40;70.60
60495;DHT22;46342;49.046;11.920;2022-10-30T11:48:00;21.50;71.10
60495;DHT22;46342;49.046;11.920;2022-10-30T11:50:29;21.60;71.40
60495;DHT22;46342;49.046;11.920;2022-10-30T11:52:55;21.70;70.90
60495;DHT22;46342;49.046;11.920;2022-10-30T11:55:34;21.80;70.20
60495;DHT22;46342;49.046;11.920;2022-10-30T11:58:00;21.90;70.60
60495;DHT22;46342;49.046;11.920;2022-10-30T12:00:31;22.00;70.20
60495;DHT22;46342;49.046;11.920;2022-10-30T12:02:58;22.00;70.00
60495;DHT22;46342;49.046;11.920;2022-10-30T12:05:40;22.10;70.50
60495;DHT22;46342;49.046;11.920;2022-10-30T12:10:34;22.20;70.80
60495;DHT22;46342;49.046;11.920;2022-10-30T12:13:05;22.30;70.00
60495;DHT22;46342;49.046;11.920;2022-10-30T12:15:37;22.30;69.40
60495;DHT22;46342;49.046;11.920;2022-10-30T12:18:05;22.40;70.00
60495;DHT22;46342;49.046;11.920;2022-10-30T12:20:32;22.50;69.60
60495;DHT22;46342;49.046;11.920;2022-10-30T12:23:09;22.50;69.60
60495;DHT22;46342;49.046;11.920;2022-10-30T12:25:36;22.60;68.70
60495;DHT22;46342;49.046;11.920;2022-10-30T12:28:19;22.70;69.20
60495;DHT22;46342;49.046;11.920;2022-10-30T12:33:20;22.80;68.70
60495;DHT22;46342;49.046;11.920;2022-10-30T12:35:56;22.90;68.20
60495;DHT22;46342;49.046;11.920;2022-10-30T12:38:49;22.90;67.90
60495;DHT22;46342;49.046;11.920;2022-10-30T12:41:30;23.00;66.90
60495;DHT22;46342;49.046;11.920;2022-10-30T12:49:28;23.20;66.30
60495;DHT22;46342;49.046;11.920;2022-10-30T12:52:00;23.20;67.90
60495;DHT22;46342;49.046;11.920;2022-10-30T12:54:49;23.20;66.40
60495;DHT22;46342;49.046;11.920;2022-10-30T12:57:24;23.20;66.00
60495;DHT22;46342;49.046;11.920;2022-10-30T13:07:50;23.30;64.20
60495;DHT22;46342;49.046;11.920;2022-10-30T13:13:15;23.30;64.00
60495;DHT22;46342;49.046;11.920;2022-10-30T13:15:51;23.30;64.00
60495;DHT22;46342;49.046;11.920;2022-10-30T13:18:20;23.30;64.40
60495;DHT22;46342;49.046;11.920;2022-10-30T13:28:54;23.20;64.50
60495;DHT22;46342;49.046;11.920;2022-10-30T13:31:32;23.20;64.20
60495;DHT22;46342;49.046;11.920;2022-10-30T13:37:07;23.20;64.10
60495;DHT22;46342;49.046;11.920;2022-10-30T13:39:42;23.20;63.50
60495;DHT22;46342;49.046;11.920;2022-10-30T13:47:31;23.10;63.00
60495;DHT22;46342;49.046;11.920;2022-10-30T13:52:37;23.10;63.50
60495;DHT22;46342;49.046;11.920;2022-10-30T14:11:14;23.00;63.50
60495;DHT22;46342;49.046;11.920;2022-10-30T14:16:41;23.00;63.20
60495;DHT22;46342;49.046;11.920;2022-10-30T14:19:08;23.00;63.10
60495;DHT22;46342;49.046;11.920;2022-10-30T14:21:40;23.00;64.40
60495;DHT22;46342;49.046;11.920;2022-10-30T14:40:35;23.00;62.80
60495;DHT22;46342;49.046;11.920;2022-10-30T14:43:07;23.00;63.00
60495;DHT22;46342;49.046;11.920;2022-10-30T14:45:42;22.90;63.30
60495;DHT22;46342;49.046;11.920;2022-10-30T14:53:44;22.90;63.20
60495;DHT22;46342;49.046;11.920;2022-10-30T14:58:42;22.80;63.30
60495;DHT22;46342;49.046;11.920;2022-10-30T15:01:31;22.80;63.80
60495;DHT22;46342;49.046;11.920;2022-10-30T15:04:07;22.80;62.80
60495;DHT22;46342;49.046;11.920;2022-10-30T15:09:46;22.70;62.90
60495;DHT22;46342;49.046;11.920;2022-10-30T15:12:32;22.60;63.20
60495;DHT22;46342;49.046;11.920;2022-10-30T15:15:04;22.50;63.60
60495;DHT22;46342;49.046;11.920;2022-10-30T15:17:40;22.50;63.50
60495;DHT22;46342;49.046;11.920;2022-10-30T15:20:15;22.40;63.70
60495;DHT22;46342;49.046;11.920;2022-10-30T15:22:41;22.40;63.30
60495;DHT22;46342;49.046;11.920;2022-10-30T15:25:21;22.30;63.60
60495;DHT22;46342;49.046;11.920;2022-10-30T15:27:51;22.30;63.00
60495;DHT22;46342;49.046;11.920;2022-10-30T15:30:20;22.20;63.30
60495;DHT22;46342;49.046;11.920;2022-10-30T15:32:46;22.10;63.30
60495;DHT22;46342;49.046;11.920;2022-10-30T15:40:21;22.00;62.80
60495;DHT22;46342;49.046;11.920;2022-10-30T15:42:48;21.90;63.40
60495;DHT22;46342;49.046;11.920;2022-10-30T15:45:34;21.80;63.20
60495;DHT22;46342;49.046;11.920;2022-10-30T15:48:22;21.70;62.60
60495;DHT22;46342;49.046;11.920;2022-10-30T15:50:59;21.60;62.90
60495;DHT22;46342;49.046;11.920;2022-10-30T15:53:39;21.60;62.90
60495;DHT22;46342;49.046;11.920;2022-10-30T15:56:17;21.50;62.70
60495;DHT22;46342;49.046;11.920;2022-10-30T15:58:49;21.40;62.60
60495;DHT22;46342;49.046;11.920;2022-10-30T16:01:23;21.30;62.80
60495;DHT22;46342;49.046;11.920;2022-10-30T16:03:53;21.30;62.60
60495;DHT22;46342;49.046;11.920;2022-10-30T16:06:19;21.20;62.90
60495;DHT22;46342;49.046;11.920;2022-10-30T16:08:47;21.10;63.00
60495;DHT22;46342;49.046;11.920;2022-10-30T16:11:14;21.00;63.00
60495;DHT22;46342;49.046;11.920;2022-10-30T16:13:40;20.90;62.90
60495;DHT22;46342;49.046;11.920;2022-10-30T16:16:32;20.90;63.00
60495;DHT22;46342;49.046;11.920;2022-10-30T16:18:59;20.80;62.60
60495;DHT22;46342;49.046;11.920;2022-10-30T16:21:25;20.70;62.80
60495;DHT22;46342;49.046;11.920;2022-10-30T16:23:55;20.70;62.50
60495;DHT22;46342;49.046;11.920;2022-10-30T16:26:35;20.60;62.70
60495;DHT22;46342;49.046;11.920;2022-10-30T16:31:34;20.40;62.50
60495;DHT22;46342;49.046;11.920;2022-10-30T16:34:02;20.30;62.80
60495;DHT22;46342;49.046;11.920;2022-10-30T16:36:28;20.20;62.80
60495;DHT22;46342;49.046;11.920;2022-10-30T16:38:54;20.20;63.00
60495;DHT22;46342;49.046;11.920;2022-10-30T16:41:21;20.10;63.00
60495;DHT22;46342;49.046;11.920;2022-10-30T16:44:15;20.00;63.00
60495;DHT22;46342;49.046;11.920;2022-10-30T16:49:21;19.90;62.80
60495;DHT22;46342;49.046;11.920;2022-10-30T16:51:54;19.80;63.00
60495;DHT22;46342;49.046;11.920;2022-10-30T16:54:24;19.80;63.20
60495;DHT22;46342;49.046;11.920;2022-10-30T16:56:52;19.70;63.20
60495;DHT22;46342;49.046;11.920;2022-10-30T17:01:55;19.60;63.20
60495;DHT22;46342;49.046;11.920;2022-10-30T17:04:22;19.50;63.10
60495;DHT22;46342;49.046;11.920;2022-10-30T17:06:48;19.50;63.40
60495;DHT22;46342;49.046;11.920;2022-10-30T17:09:25;19.40;63.30
60495;DHT22;46342;49.046;11.920;2022-10-30T17:12:20;19.40;63.00
60495;DHT22;46342;49.046;11.920;2022-10-30T17:15:00;19.30;63.10
60495;DHT22;46342;49.046;11.920;2022-10-30T17:17:33;19.20;63.10
60495;DHT22;46342;49.046;11.920;2022-10-30T17:22:45;19.10;63.10
60495;DHT22;46342;49.046;11.920;2022-10-30T17:25:34;19.00;63.20
60495;DHT22;46342;49.046;11.920;2022-10-30T17:28:00;19.00;63.20
60495;DHT22;46342;49.046;11.920;2022-10-30T17:33:00;18.80;63.50
60495;DHT22;46342;49.046;11.920;2022-10-30T17:35:26;18.80;63.70
60495;DHT22;46342;49.046;11.920;2022-10-30T17:37:52;18.80;63.90
60495;DHT22;46342;49.046;11.920;2022-10-30T17:40:18;18.70;63.90
60495;DHT22;46342;49.046;11.920;2022-10-30T17:42:44;18.60;63.80
60495;DHT22;46342;49.046;11.920;2022-10-30T17:45:14;18.60;63.90
60495;DHT22;46342;49.046;11.920;2022-10-30T17:47:40;18.60;64.00
60495;DHT22;46342;49.046;11.920;2022-10-30T17:50:06;18.50;63.90
60495;DHT22;46342;49.046;11.920;2022-10-30T17:52:32;18.50;63.90
60495;DHT22;46342;49.046;11.920;2022-10-30T17:55:00;18.50;63.90
60495;DHT22;46342;49.046;11.920;2022-10-30T17:57:26;18.40;63.90
60495;DHT22;46342;49.046;11.920;2022-10-30T17:59:53;18.30;63.80
60495;DHT22;46342;49.046;11.920;2022-10-30T18:02:21;18.30;63.90
60495;DHT22;46342;49.046;11.920;2022-10-30T18:04:47;18.20;63.90
60495;DHT22;46342;49.046;11.920;2022-10-30T18:07:15;18.20;64.00